Time;durP1;ratioP1;P1;durP2;ratioP2;P2;SDS_P1;SDS_P2;PMS_P1;PMS_P2;Temp;Humidity;BMP_temperature;BMP_pressure;BME280_temperature;BME280_humidity;BME280_pressure;Samples;Min_cycle;Max_cycle;Signal;HPM_P1;HPM_P2
2022/03/22 00:01:38;;;;;;;;;;;;;;;12.48;20.85;101115.13;4465068;32;35226;-80
2022/03/22 00:04:05;;;;;;;;;;;;;;;11.57;21.61;101120.28;4462445;32;34103;-81
2022/03/22 00:06:32;;;;;;;;;;;;;;;11.71;21.62;101115.63;4451886;32;32922;-80
2022/03/22 00:08:59;;;;;;;;;;;;;;;11.61;21.88;101122.16;4451358;32;34233;-80
2022/03/22 00:11:27;;;;;;;;;;;;;;;11.64;21.75;101115.37;4454128;32;34482;-80
2022/03/22 00:13:54;;;;;;;;;;;;;;;11.78;21.82;101109.81;4467640;32;34165;-82
2022/03/22 00:16:23;;;;;;;;;;;;;;;12.24;21.35;101122.91;4467719;32;33442;-83
2022/03/22 00:19:10;;;;;;;;;;;;;;;12.45;21.22;101120.19;4460936;32;35208;-81
2022/03/22 00:21:37;;;;;;;;;;;;;;;12.26;20.85;101110.84;4452045;32;34363;-81
2022/03/22 00:24:05;;;;;;;;;;;;;;;12.43;21.06;101108.88;4452275;32;34143;-82
2022/03/22 00:26:32;;;;;;;;;;;;;;;12.36;20.95;101117.28;4451970;32;33189;-81
2022/03/22 00:29:00;;;;;;;;;;;;;;;12.37;21.62;101119.03;4453589;32;34021;-81
2022/03/22 00:31:29;;;;;;;;;;;;;;;12.31;20.99;101114.50;4467434;32;35301;-81
2022/03/22 00:33:57;;;;;;;;;;;;;;;12.35;21.25;101120.69;4442337;32;34122;-82
2022/03/22 00:36:25;;;;;;;;;;;;;;;11.81;22.34;101115.16;4451832;32;33655;-81
2022/03/22 00:38:52;;;;;;;;;;;;;;;12.02;21.62;101113.41;4465586;32;33938;-82
2022/03/22 00:41:20;;;;;;;;;;;;;;;12.09;21.51;101112.81;4451731;32;35280;-81
2022/03/22 00:43:47;;;;;;;;;;;;;;;11.78;22.05;101108.16;4451572;32;33996;-81
2022/03/22 00:46:14;;;;;;;;;;;;;;;11.55;22.35;101109.81;4451955;32;33218;-80
2022/03/22 00:48:42;;;;;;;;;;;;;;;11.59;22.13;101116.94;4460947;32;34290;-82
2022/03/22 00:51:09;;;;;;;;;;;;;;;12.02;22.14;101110.81;4450748;32;34385;-83
2022/03/22 00:53:36;;;;;;;;;;;;;;;11.97;21.82;101106.25;4452089;32;34873;-80
2022/03/22 00:56:05;;;;;;;;;;;;;;;11.93;22.07;101108.75;4449313;32;32979;-83
2022/03/22 00:58:32;;;;;;;;;;;;;;;12.17;21.91;101111.41;4446953;32;33850;-82
2022/03/22 01:01:00;;;;;;;;;;;;;;;12.27;21.86;101106.53;4448708;32;33802;-81
2022/03/22 01:03:28;;;;;;;;;;;;;;;12.07;22.01;101104.06;4449247;32;33387;-82
2022/03/22 01:05:56;;;;;;;;;;;;;;;12.15;21.63;101107.84;4448763;32;33963;-81
2022/03/22 01:08:23;;;;;;;;;;;;;;;12.04;21.12;101108.25;4446777;32;33916;-82
2022/03/22 01:10:54;;;;;;;;;;;;;;;12.16;21.52;101094.03;4461765;32;34860;-82
2022/03/22 01:13:23;;;;;;;;;;;;;;;12.23;21.75;101097.72;4451339;32;33654;-81
2022/03/22 01:15:50;;;;;;;;;;;;;;;12.30;21.34;101096.25;4447194;32;33255;-80
2022/03/22 01:18:18;;;;;;;;;;;;;;;12.35;21.66;101095.59;4459902;32;33900;-83
2022/03/22 01:20:46;;;;;;;;;;;;;;;12.46;21.59;101092.47;4465670;32;33926;-81
2022/03/22 01:23:15;;;;;;;;;;;;;;;12.57;21.33;101093.75;4443629;32;34213;-81
2022/03/22 01:25:43;;;;;;;;;;;;;;;12.27;21.31;101096.12;4464645;32;34132;-83
2022/03/22 01:28:12;;;;;;;;;;;;;;;12.31;21.32;101087.59;4451704;32;35018;-81
2022/03/22 01:30:40;;;;;;;;;;;;;;;12.44;21.23;101095.03;4450179;32;34074;-82
2022/03/22 01:33:08;;;;;;;;;;;;;;;12.64;21.17;101091.41;4454697;32;34412;-80
2022/03/22 01:35:35;;;;;;;;;;;;;;;12.53;21.22;101097.94;4449790;32;33559;-81
2022/03/22 01:38:03;;;;;;;;;;;;;;;12.58;21.26;101088.59;4455860;32;33918;-82
2022/03/22 01:40:30;;;;;;;;;;;;;;;12.25;21.80;101085.66;4464138;32;34499;-81
2022/03/22 01:42:58;;;;;;;;;;;;;;;12.54;20.83;101096.22;4466373;32;34766;-82
2022/03/22 01:45:25;;;;;;;;;;;;;;;12.54;21.34;101091.94;4465724;32;33546;-81
2022/03/22 01:47:58;;;;;;;;;;;;;;;12.79;21.17;101096.25;4466801;32;34823;-81
2022/03/22 01:50:27;;;;;;;;;;;;;;;12.73;20.95;101087.34;4466756;32;34836;-83
2022/03/22 01:52:54;;;;;;;;;;;;;;;12.71;20.77;101084.72;4460071;32;34305;-81
2022/03/22 01:55:23;;;;;;;;;;;;;;;12.89;20.67;101085.34;4466008;32;33083;-81
2022/03/22 01:57:51;;;;;;;;;;;;;;;12.95;20.55;101089.84;4466521;32;34261;-82
2022/03/22 02:00:18;;;;;;;;;;;;;;;13.00;20.53;101085.72;4466668;32;35271;-81
2022/03/22 02:08:20;;;;;;;;;;;;;;;12.77;20.84;101076.25;4441687;32;34294;-80
2022/03/22 02:10:49;;;;;;;;;;;;;;;12.64;21.00;101078.41;4455176;32;33859;-82
2022/03/22 02:13:16;;;;;;;;;;;;;;;12.84;20.46;101073.00;4453193;32;34229;-81
2022/03/22 02:15:45;;;;;;;;;;;;;;;12.76;20.55;101066.63;4439252;32;33818;-82
2022/03/22 02:18:12;;;;;;;;;;;;;;;12.76;20.62;101069.25;4452184;32;34706;-81
2022/03/22 02:20:39;;;;;;;;;;;;;;;12.12;21.36;101071.34;4443493;32;34124;-82
2022/03/22 02:23:14;;;;;;;;;;;;;;;11.95;21.58;101072.41;4457083;32;34283;-81
2022/03/22 02:25:41;;;;;;;;;;;;;;;12.17;21.47;101064.59;4453367;32;33327;-82
2022/03/22 02:28:10;;;;;;;;;;;;;;;12.28;21.14;101075.38;4452901;32;34134;-82
2022/03/22 02:30:37;;;;;;;;;;;;;;;11.61;21.68;101063.31;4453244;32;34383;-81
2022/03/22 02:33:06;;;;;;;;;;;;;;;12.11;21.52;101069.56;4439001;32;35083;-81
2022/03/22 02:35:33;;;;;;;;;;;;;;;11.83;21.80;101069.34;4453200;32;34242;-82
2022/03/22 02:38:00;;;;;;;;;;;;;;;12.31;21.66;101069.38;4448869;32;34296;-82
2022/03/22 02:40:27;;;;;;;;;;;;;;;12.41;21.74;101068.91;4452868;32;34328;-82
2022/03/22 02:42:58;;;;;;;;;;;;;;;11.86;22.04;101069.50;4463882;32;34818;-81
2022/03/22 02:45:25;;;;;;;;;;;;;;;12.13;21.92;101067.03;4467969;32;32903;-81
2022/03/22 02:47:53;;;;;;;;;;;;;;;11.80;21.80;101069.22;4468219;32;34952;-81
2022/03/22 02:50:21;;;;;;;;;;;;;;;11.96;21.57;101066.38;4459699;32;35006;-81
2022/03/22 02:52:48;;;;;;;;;;;;;;;12.26;21.42;101069.22;4442191;32;34148;-81
2022/03/22 02:55:16;;;;;;;;;;;;;;;12.07;21.68;101067.66;4468116;32;33431;-83
2022/03/22 02:57:43;;;;;;;;;;;;;;;11.99;22.04;101070.81;4468360;32;34000;-82
2022/03/22 03:00:11;;;;;;;;;;;;;;;11.63;22.32;101071.13;4468050;32;34526;-81
2022/03/22 03:02:46;;;;;;;;;;;;;;;11.80;22.07;101072.69;4459438;32;34376;-82
2022/03/22 03:05:13;;;;;;;;;;;;;;;12.08;21.86;101068.56;4438736;32;33419;-82
2022/03/22 03:07:41;;;;;;;;;;;;;;;12.11;21.79;101069.56;4452891;32;34931;-82
2022/03/22 03:10:08;;;;;;;;;;;;;;;11.86;21.99;101066.88;4464081;32;34384;-82
2022/03/22 03:12:35;;;;;;;;;;;;;;;12.10;21.85;101078.19;4468380;32;34861;-83
2022/03/22 03:15:04;;;;;;;;;;;;;;;12.12;21.84;101068.75;4468341;32;33545;-82
2022/03/22 03:17:31;;;;;;;;;;;;;;;11.61;22.48;101071.09;4463115;32;33863;-83
2022/03/22 03:19:58;;;;;;;;;;;;;;;11.79;22.28;101083.03;4453025;32;34035;-81
2022/03/22 03:22:27;;;;;;;;;;;;;;;11.67;22.29;101081.75;4452477;32;34834;-83
2022/03/22 03:24:54;;;;;;;;;;;;;;;11.31;22.50;101085.47;4452139;32;34313;-82
2022/03/22 03:27:22;;;;;;;;;;;;;;;11.78;22.39;101087.34;4453038;32;34287;-83
2022/03/22 03:29:49;;;;;;;;;;;;;;;11.80;22.73;101088.28;4461980;32;34212;-82
2022/03/22 03:32:16;;;;;;;;;;;;;;;11.80;22.39;101083.09;4464044;32;33782;-83
2022/03/22 03:34:43;;;;;;;;;;;;;;;11.85;22.18;101085.88;4452740;32;32964;-83
2022/03/22 03:37:11;;;;;;;;;;;;;;;11.78;22.10;101084.75;4438641;32;33830;-83
2022/03/22 03:39:40;;;;;;;;;;;;;;;12.00;22.20;101081.25;4460295;32;34002;-83
2022/03/22 03:42:07;;;;;;;;;;;;;;;12.04;22.29;101077.06;4467942;32;33813;-82
2022/03/22 03:47:22;;;;;;;;;;;;;;;11.87;23.18;101082.53;4446630;32;33329;-82
2022/03/22 03:49:55;;;;;;;;;;;;;;;11.59;22.83;101083.16;4438628;32;34231;-82
2022/03/22 03:52:22;;;;;;;;;;;;;;;11.27;23.24;101078.38;4452302;32;34504;-82
2022/03/22 03:54:50;;;;;;;;;;;;;;;11.80;21.94;101077.87;4452296;32;34258;-82
2022/03/22 03:57:18;;;;;;;;;;;;;;;11.12;22.92;101084.72;4452471;32;34440;-82
2022/03/22 03:59:45;;;;;;;;;;;;;;;11.57;22.15;101081.31;4438846;32;34242;-82
2022/03/22 04:02:12;;;;;;;;;;;;;;;11.73;22.32;101087.97;4452360;32;35046;-81
2022/03/22 04:04:40;;;;;;;;;;;;;;;11.74;22.11;101081.94;4452158;32;33171;-80
2022/03/22 04:07:08;;;;;;;;;;;;;;;11.74;21.97;101081.94;4452595;32;34194;-82
2022/03/22 04:09:36;;;;;;;;;;;;;;;11.86;22.18;101082.47;4459208;32;34201;-82
2022/03/22 04:12:04;;;;;;;;;;;;;;;11.79;22.25;101090.84;4468062;32;34901;-81
2022/03/22 04:14:31;;;;;;;;;;;;;;;11.74;21.97;101088.03;4460324;32;34124;-81
2022/03/22 04:16:58;;;;;;;;;;;;;;;11.86;21.77;101093.75;4452445;32;34308;-81
2022/03/22 04:19:26;;;;;;;;;;;;;;;11.76;21.87;101096.78;4438851;32;35267;-81
2022/03/22 04:21:53;;;;;;;;;;;;;;;11.91;21.89;101087.00;4452320;32;33682;-80
2022/03/22 04:24:20;;;;;;;;;;;;;;;11.93;21.82;101089.66;4452239;32;33021;-80
2022/03/22 04:26:48;;;;;;;;;;;;;;;11.97;21.82;101098.47;4452181;32;34750;-81
2022/03/22 04:35:06;;;;;;;;;;;;;;;11.89;21.44;101101.69;4397950;32;33945;-82
2022/03/22 04:37:34;;;;;;;;;;;;;;;11.82;21.72;101103.91;4432808;32;33786;-83
2022/03/22 04:40:01;;;;;;;;;;;;;;;11.85;21.72;101109.28;4461221;32;34151;-81
2022/03/22 04:42:28;;;;;;;;;;;;;;;12.03;21.65;101106.50;4467569;32;35239;-81
2022/03/22 04:44:56;;;;;;;;;;;;;;;11.87;21.90;101112.84;4467350;32;34148;-81
2022/03/22 04:47:24;;;;;;;;;;;;;;;12.08;21.61;101107.56;4465250;32;35100;-82
2022/03/22 04:49:53;;;;;;;;;;;;;;;11.75;22.08;101112.34;4452150;32;35034;-81
2022/03/22 04:57:53;;;;;;;;;;;;;;;12.22;21.74;101118.47;4466813;32;33242;-81
2022/03/22 05:00:20;;;;;;;;;;;;;;;12.29;21.79;101112.69;4467135;32;34160;-81
2022/03/22 05:02:47;;;;;;;;;;;;;;;12.28;21.72;101116.13;4452491;32;34015;-81
2022/03/22 05:05:15;;;;;;;;;;;;;;;12.37;21.65;101114.72;4454978;32;33296;-82
2022/03/22 05:07:42;;;;;;;;;;;;;;;12.41;21.44;101120.91;4467380;32;35148;-82
2022/03/22 05:10:10;;;;;;;;;;;;;;;12.35;21.62;101113.81;4466959;32;33842;-82
2022/03/22 05:12:39;;;;;;;;;;;;;;;12.52;21.61;101119.59;4466776;32;34912;-81
2022/03/22 05:15:07;;;;;;;;;;;;;;;12.78;21.47;101111.84;4467092;32;32786;-79
2022/03/22 05:17:34;;;;;;;;;;;;;;;12.89;21.35;101113.97;4452715;32;34620;-82
2022/03/22 05:20:01;;;;;;;;;;;;;;;13.11;20.74;101123.41;4466414;32;34519;-81
2022/03/22 05:22:30;;;;;;;;;;;;;;;13.37;20.56;101116.50;4444174;32;34065;-82
2022/03/22 05:24:58;;;;;;;;;;;;;;;13.56;20.37;101124.87;4466112;32;32925;-81
2022/03/22 05:27:26;;;;;;;;;;;;;;;13.78;20.15;101118.63;4458413;32;33970;-82
2022/03/22 05:29:53;;;;;;;;;;;;;;;13.73;20.03;101120.22;4457521;32;33808;-81
2022/03/22 05:32:20;;;;;;;;;;;;;;;13.72;20.61;101111.53;4461877;32;36373;-81
2022/03/22 05:34:50;;;;;;;;;;;;;;;13.13;21.31;101123.44;4467153;32;33611;-82
2022/03/22 05:37:17;;;;;;;;;;;;;;;13.38;20.83;101119.97;4453757;32;32768;-81
2022/03/22 05:39:45;;;;;;;;;;;;;;;13.49;20.92;101125.56;4466826;32;34444;-81
2022/03/22 05:42:14;;;;;;;;;;;;;;;13.52;20.71;101121.28;4459650;32;34010;-81
2022/03/22 05:44:43;;;;;;;;;;;;;;;13.79;20.13;101123.03;4455405;32;34199;-80
2022/03/22 05:47:10;;;;;;;;;;;;;;;13.69;20.56;101123.56;4464599;32;34264;-82
2022/03/22 05:49:38;;;;;;;;;;;;;;;14.05;19.87;101122.09;4456210;32;35306;-80
2022/03/22 05:52:05;;;;;;;;;;;;;;;13.97;19.68;101118.34;4465008;32;34769;-82
2022/03/22 05:54:33;;;;;;;;;;;;;;;14.04;19.74;101122.91;4465462;32;33223;-80
2022/03/22 05:57:00;;;;;;;;;;;;;;;14.28;19.37;101128.00;4454171;32;34291;-81
2022/03/22 05:59:27;;;;;;;;;;;;;;;14.22;19.23;101133.00;4461870;32;35356;-81
2022/03/22 06:01:54;;;;;;;;;;;;;;;14.24;19.03;101133.94;4452811;32;35041;-82
2022/03/22 06:04:22;;;;;;;;;;;;;;;14.31;19.04;101135.00;4453061;32;33202;-82
2022/03/22 06:06:49;;;;;;;;;;;;;;;14.51;18.98;101141.72;4452946;32;34998;-83
2022/03/22 06:09:16;;;;;;;;;;;;;;;14.60;18.78;101141.09;4452958;32;34409;-82
2022/03/22 06:11:44;;;;;;;;;;;;;;;14.94;17.60;101142.00;4453243;32;32460;-82
2022/03/22 06:14:11;;;;;;;;;;;;;;;14.92;17.65;101139.34;4453061;32;33714;-82
2022/03/22 06:16:38;;;;;;;;;;;;;;;14.78;17.98;101149.44;4452944;32;33924;-82
2022/03/22 06:19:06;;;;;;;;;;;;;;;14.86;17.88;101139.19;4453114;32;35188;-82
2022/03/22 06:21:34;;;;;;;;;;;;;;;15.02;17.95;101145.72;4454283;32;34990;-83
2022/03/22 06:24:01;;;;;;;;;;;;;;;15.61;17.32;101137.56;4468721;32;33431;-82
2022/03/22 06:26:28;;;;;;;;;;;;;;;15.64;16.85;101142.88;4468469;32;33916;-83
2022/03/22 06:28:56;;;;;;;;;;;;;;;15.39;16.92;101144.91;4454632;32;35090;-83
2022/03/22 06:31:23;;;;;;;;;;;;;;;15.44;16.98;101145.91;4468203;32;34960;-83
2022/03/22 06:33:50;;;;;;;;;;;;;;;15.29;17.25;101142.91;4468628;32;33931;-82
2022/03/22 06:36:17;;;;;;;;;;;;;;;14.84;18.06;101151.31;4463879;32;34365;-82
2022/03/22 06:38:45;;;;;;;;;;;;;;;15.09;18.19;101158.97;4468235;32;35034;-82
2022/03/22 06:41:12;;;;;;;;;;;;;;;15.06;18.39;101158.87;4446432;32;33793;-81
2022/03/22 06:43:39;;;;;;;;;;;;;;;14.78;19.10;101156.38;4468154;32;33761;-81
2022/03/22 06:46:06;;;;;;;;;;;;;;;14.40;18.96;101161.38;4468277;32;34761;-81
2022/03/22 06:48:34;;;;;;;;;;;;;;;14.74;18.88;101157.16;4468523;32;34420;-82
2022/03/22 06:51:01;;;;;;;;;;;;;;;14.05;19.58;101155.09;4468220;32;34148;-81
2022/03/22 06:53:28;;;;;;;;;;;;;;;13.79;19.74;101151.69;4453974;32;33353;-82
2022/03/22 06:55:55;;;;;;;;;;;;;;;15.20;17.81;101156.63;4468344;32;34312;-81
2022/03/22 06:58:24;;;;;;;;;;;;;;;13.64;19.97;101152.09;4453771;32;33919;-81
2022/03/22 07:00:55;;;;;;;;;;;;;;;15.18;17.48;101154.81;4468402;32;34913;-82
2022/03/22 07:03:22;;;;;;;;;;;;;;;13.74;20.13;101158.47;4468476;32;33464;-82
2022/03/22 07:05:50;;;;;;;;;;;;;;;14.29;19.60;101163.66;4468570;32;34274;-82
2022/03/22 07:08:17;;;;;;;;;;;;;;;15.19;18.89;101160.09;4468410;32;34505;-81
2022/03/22 07:11:47;;;;;;;;;;;;;;;15.30;18.32;101165.59;4468137;32;35310;-82
2022/03/22 07:13:32;;;;;;;;;;;;;;;14.62;18.17;101157.66;4468160;32;33718;-81
2022/03/22 07:16:01;;;;;;;;;;;;;;;14.89;17.66;101162.78;4468319;32;34213;-81
2022/03/22 07:18:28;;;;;;;;;;;;;;;14.39;17.66;101159.59;4468232;32;34131;-81
2022/03/22 07:20:55;;;;;;;;;;;;;;;14.62;17.64;101164.62;4468365;32;33608;-81
2022/03/22 07:23:23;;;;;;;;;;;;;;;14.73;17.38;101148.41;4468199;32;33947;-81
2022/03/22 07:25:50;;;;;;;;;;;;;;;14.96;17.57;101166.44;4467878;32;34806;-81
2022/03/22 07:28:17;;;;;;;;;;;;;;;14.88;17.62;101163.59;4468321;32;34180;-81
2022/03/22 07:30:44;;;;;;;;;;;;;;;15.31;17.45;101163.03;4468056;32;34951;-82
2022/03/22 07:33:12;;;;;;;;;;;;;;;14.73;17.84;101168.41;4467985;32;34281;-81
2022/03/22 07:35:40;;;;;;;;;;;;;;;15.75;17.39;101160.62;4454024;32;33496;-82
2022/03/22 07:38:08;;;;;;;;;;;;;;;15.80;17.09;101160.75;4468122;32;34187;-82
2022/03/22 07:40:35;;;;;;;;;;;;;;;15.61;17.42;101162.03;4467927;32;33600;-81
2022/03/22 07:43:02;;;;;;;;;;;;;;;14.92;18.31;101170.69;4467906;32;33336;-81
2022/03/22 07:45:29;;;;;;;;;;;;;;;15.54;17.62;101163.59;4468003;32;34989;-81
2022/03/22 07:47:56;;;;;;;;;;;;;;;15.09;17.91;101164.19;4467935;32;35212;-81
2022/03/22 07:53:10;;;;;;;;;;;;;;;15.69;17.70;101163.13;4468018;32;33120;-81
2022/03/22 07:55:38;;;;;;;;;;;;;;;15.13;17.27;101169.50;4468107;32;34953;-81
2022/03/22 07:58:06;;;;;;;;;;;;;;;15.44;17.07;101165.94;4467952;32;34428;-82
2022/03/22 08:00:41;;;;;;;;;;;;;;;14.96;17.80;101171.66;4454175;32;34198;-81
2022/03/22 08:03:10;;;;;;;;;;;;;;;16.22;16.80;101167.81;4454893;32;33116;-82
2022/03/22 08:05:38;;;;;;;;;;;;;;;16.21;16.99;101168.63;4454558;32;34003;-81
2022/03/22 08:08:06;;;;;;;;;;;;;;;16.65;15.88;101166.97;4454250;32;34737;-81
2022/03/22 08:10:54;;;;;;;;;;;;;;;16.59;16.24;101171.19;4467368;32;33795;-81
2022/03/22 08:13:21;;;;;;;;;;;;;;;16.17;16.73;101164.19;4468079;32;33731;-81
2022/03/22 08:15:48;;;;;;;;;;;;;;;16.41;16.69;101162.13;4468105;32;34009;-81
2022/03/22 08:18:17;;;;;;;;;;;;;;;16.05;16.84;101163.06;4467977;32;35304;-83
2022/03/22 08:20:44;;;;;;;;;;;;;;;16.02;17.29;101156.88;4467860;32;34266;-81
2022/03/22 08:23:12;;;;;;;;;;;;;;;15.84;16.93;101151.25;4468079;32;33444;-81
2022/03/22 08:25:40;;;;;;;;;;;;;;;16.66;16.50;101162.59;4467430;32;34943;-81
2022/03/22 08:28:08;;;;;;;;;;;;;;;17.11;16.30;101154.75;4468060;32;35242;-81
2022/03/22 08:30:35;;;;;;;;;;;;;;;17.26;15.99;101146.28;4467722;32;34964;-81
2022/03/22 08:33:07;;;;;;;;;;;;;;;17.40;16.08;101149.16;4467588;32;34223;-81
2022/03/22 08:35:35;;;;;;;;;;;;;;;17.44;16.48;101146.59;4467822;32;34035;-81
2022/03/22 08:38:02;;;;;;;;;;;;;;;17.87;16.00;101147.28;4453586;32;35148;-82
2022/03/22 08:40:30;;;;;;;;;;;;;;;17.76;16.05;101143.62;4453305;32;33824;-81
2022/03/22 08:42:58;;;;;;;;;;;;;;;17.57;15.99;101142.41;4453698;32;34019;-82
2022/03/22 08:45:26;;;;;;;;;;;;;;;18.32;15.24;101148.78;4453573;32;33883;-82
2022/03/22 08:47:54;;;;;;;;;;;;;;;16.77;16.40;101155.87;4467386;32;34167;-82
2022/03/22 08:50:25;;;;;;;;;;;;;;;17.36;15.83;101144.72;4453689;32;33764;-81
2022/03/22 08:52:55;;;;;;;;;;;;;;;16.78;16.37;101142.81;4467682;32;33206;-82
2022/03/22 08:55:24;;;;;;;;;;;;;;;17.05;15.90;101135.41;4453525;32;34656;-81
2022/03/22 08:57:52;;;;;;;;;;;;;;;16.66;16.42;101136.41;4467600;32;34410;-82
2022/03/22 09:00:19;;;;;;;;;;;;;;;16.44;16.37;101130.75;4467561;32;33881;-85
2022/03/22 09:02:48;;;;;;;;;;;;;;;17.14;15.87;101131.22;4453392;32;33734;-82
2022/03/22 09:08:05;;;;;;;;;;;;;;;18.09;14.94;101130.09;4467396;32;34985;-82
2022/03/22 09:10:33;;;;;;;;;;;;;;;18.31;14.93;101126.00;4467380;32;33761;-82
2022/03/22 09:13:01;;;;;;;;;;;;;;;17.68;15.88;101126.84;4453290;32;32882;-82
2022/03/22 09:15:28;;;;;;;;;;;;;;;18.30;15.86;101124.25;4453203;32;34413;-82
2022/03/22 09:17:56;;;;;;;;;;;;;;;18.41;14.72;101125.28;4467277;32;34210;-82
2022/03/22 09:20:31;;;;;;;;;;;;;;;19.01;14.61;101127.69;4466560;32;34967;-82
2022/03/22 09:22:59;;;;;;;;;;;;;;;18.70;14.74;101129.97;4453280;32;33017;-82
2022/03/22 09:25:29;;;;;;;;;;;;;;;18.61;14.45;101122.00;4453108;32;33857;-82
2022/03/22 09:28:00;;;;;;;;;;;;;;;19.31;14.31;101109.53;4453299;32;35274;-85
2022/03/22 09:30:27;;;;;;;;;;;;;;;18.04;15.04;101115.16;4467135;32;35027;-82
2022/03/22 09:32:57;;;;;;;;;;;;;;;18.81;14.71;101112.59;4467176;32;33316;-82
2022/03/22 09:35:24;;;;;;;;;;;;;;;18.05;15.50;101109.03;4467118;32;33905;-84
2022/03/22 09:37:52;;;;;;;;;;;;;;;18.96;14.48;101115.37;4466915;32;34843;-82
2022/03/22 09:40:19;;;;;;;;;;;;;;;19.65;14.13;101104.56;4466970;32;34250;-82
2022/03/22 09:42:46;;;;;;;;;;;;;;;19.19;14.75;101099.81;4452790;32;33226;-83
2022/03/22 09:45:18;;;;;;;;;;;;;;;17.97;15.42;101109.81;4466892;32;34674;-82
2022/03/22 09:47:45;;;;;;;;;;;;;;;18.65;14.72;101103.66;4466907;32;34277;-82
2022/03/22 09:50:13;;;;;;;;;;;;;;;19.92;13.84;101096.81;4453109;32;34269;-82
2022/03/22 09:52:41;;;;;;;;;;;;;;;19.33;14.50;101102.56;4452586;32;33296;-82
2022/03/22 09:55:08;;;;;;;;;;;;;;;19.36;14.20;101099.97;4466616;32;34319;-82
2022/03/22 09:57:36;;;;;;;;;;;;;;;19.81;13.87;101090.66;4452660;32;34239;-83
2022/03/22 10:00:04;;;;;;;;;;;;;;;19.59;14.62;101092.22;4452757;32;34218;-82
2022/03/22 10:02:38;;;;;;;;;;;;;;;20.67;13.61;101096.28;4466556;32;34222;-82
2022/03/22 10:05:06;;;;;;;;;;;;;;;19.72;13.86;101087.94;4466542;32;34218;-83
2022/03/22 10:07:33;;;;;;;;;;;;;;;19.90;13.46;101087.19;4466709;32;34365;-82
2022/03/22 10:10:02;;;;;;;;;;;;;;;19.99;13.60;101084.59;4466384;32;34757;-82
2022/03/22 10:12:30;;;;;;;;;;;;;;;20.60;13.37;101079.56;4466489;32;33979;-82
2022/03/22 10:15:10;;;;;;;;;;;;;;;20.31;13.14;101082.09;4466508;32;34282;-82
2022/03/22 10:17:38;;;;;;;;;;;;;;;20.79;13.71;101077.84;4466506;32;35345;-82
2022/03/22 10:20:06;;;;;;;;;;;;;;;20.94;13.54;101068.19;4466391;32;33997;-82
2022/03/22 10:22:34;;;;;;;;;;;;;;;20.74;12.84;101071.69;4466065;32;34317;-82
2022/03/22 10:25:05;;;;;;;;;;;;;;;20.94;12.82;101061.16;4466562;32;35198;-82
2022/03/22 10:27:32;;;;;;;;;;;;;;;20.74;13.21;101073.44;4439704;32;33215;-85
2022/03/22 10:30:19;;;;;;;;;;;;;;;20.75;12.75;101062.03;4466438;32;34092;-82
2022/03/22 10:32:53;;;;;;;;;;;;;;;21.07;12.83;101060.28;4453009;32;33192;-82
2022/03/22 10:35:20;;;;;;;;;;;;;;;21.02;12.58;101055.88;4455228;32;33896;-82
2022/03/22 10:37:51;;;;;;;;;;;;;;;21.55;12.13;101060.25;4468515;32;34485;-82
2022/03/22 10:40:24;;;;;;;;;;;;;;;20.30;13.03;101059.25;4468658;32;34934;-84
2022/03/22 10:42:52;;;;;;;;;;;;;;;20.90;12.51;101055.00;4454561;32;32771;-82
2022/03/22 10:45:19;;;;;;;;;;;;;;;21.00;12.38;101057.66;4454585;32;34286;-82
2022/03/22 10:47:46;;;;;;;;;;;;;;;21.83;12.15;101046.13;4454192;32;34121;-82
2022/03/22 10:50:14;;;;;;;;;;;;;;;21.21;12.53;101046.22;4454297;32;34868;-82
2022/03/22 10:53:07;;;;;;;;;;;;;;;21.11;12.13;101033.03;4468328;32;33456;-82
2022/03/22 10:55:35;;;;;;;;;;;;;;;21.16;12.70;101034.78;4465810;32;35050;-82
2022/03/22 10:58:02;;;;;;;;;;;;;;;22.19;12.74;101033.66;4454245;32;34371;-82
2022/03/22 11:00:30;;;;;;;;;;;;;;;21.31;12.77;101034.78;4468145;32;34044;-82
2022/03/22 11:02:57;;;;;;;;;;;;;;;21.75;11.90;101034.72;4468474;32;34103;-82
2022/03/22 11:05:26;;;;;;;;;;;;;;;20.69;12.55;101026.00;4468206;32;33481;-82
2022/03/22 11:07:53;;;;;;;;;;;;;;;21.15;12.42;101018.09;4468411;32;35317;-82
2022/03/22 11:10:29;;;;;;;;;;;;;;;22.01;12.19;101016.13;4468371;32;34049;-84
2022/03/22 11:12:58;;;;;;;;;;;;;;;22.42;11.70;101009.75;4455155;32;33725;-82
2022/03/22 11:15:26;;;;;;;;;;;;;;;22.41;11.94;101010.66;4468276;32;33745;-82
2022/03/22 11:17:53;;;;;;;;;;;;;;;22.76;11.66;101010.37;4454220;32;35339;-82
2022/03/22 11:20:22;;;;;;;;;;;;;;;22.16;12.11;101009.03;4453916;32;34844;-82
2022/03/22 11:22:54;;;;;;;;;;;;;;;23.21;10.83;100995.03;4468222;32;33790;-83
2022/03/22 11:25:35;;;;;;;;;;;;;;;22.87;11.91;100996.22;4454091;32;34356;-82
2022/03/22 11:28:07;;;;;;;;;;;;;;;22.16;11.54;101002.00;4468126;32;34330;-82
2022/03/22 11:30:35;;;;;;;;;;;;;;;21.87;12.24;100997.69;4468227;32;34213;-82
2022/03/22 11:35:50;;;;;;;;;;;;;;;22.46;11.89;100978.91;4456013;32;34729;-84
2022/03/22 11:38:36;;;;;;;;;;;;;;;21.38;11.92;100979.37;4453850;32;34870;-82
2022/03/22 11:43:50;;;;;;;;;;;;;;;22.24;11.38;100968.50;4467179;32;32853;-82
2022/03/22 11:46:17;;;;;;;;;;;;;;;22.30;11.60;100968.44;4467868;32;33918;-82
2022/03/22 11:48:49;;;;;;;;;;;;;;;22.31;13.04;100971.94;4468198;32;34249;-82
2022/03/22 11:51:22;;;;;;;;;;;;;;;22.54;10.89;100971.78;4468169;32;34287;-83
2022/03/22 11:53:49;;;;;;;;;;;;;;;21.68;11.83;100971.38;4467940;32;33500;-83
2022/03/22 11:56:16;;;;;;;;;;;;;;;22.42;12.28;100956.03;4467949;32;33446;-82
2022/03/22 11:58:50;;;;;;;;;;;;;;;21.63;12.45;100966.13;4453914;32;34646;-83
2022/03/22 12:01:33;;;;;;;;;;;;;;;21.55;11.97;100962.63;4467967;32;35065;-83
2022/03/22 12:04:02;;;;;;;;;;;;;;;22.24;11.74;100955.28;4467934;32;33261;-82
2022/03/22 12:06:30;;;;;;;;;;;;;;;22.05;12.08;100950.97;4468242;32;33908;-82
2022/03/22 12:08:57;;;;;;;;;;;;;;;22.24;13.50;100950.00;4453856;32;34477;-82
2022/03/22 12:11:25;;;;;;;;;;;;;;;22.11;12.69;100943.00;4467812;32;34245;-83
2022/03/22 12:13:53;;;;;;;;;;;;;;;22.79;12.62;100935.44;4467989;32;34494;-82
2022/03/22 12:16:25;;;;;;;;;;;;;;;22.44;11.64;100931.34;4467691;32;34921;-83
2022/03/22 12:18:52;;;;;;;;;;;;;;;22.41;11.64;100935.78;4467696;32;34988;-82
2022/03/22 12:21:21;;;;;;;;;;;;;;;23.14;10.99;100927.19;4467832;32;34163;-82
2022/03/22 12:23:49;;;;;;;;;;;;;;;22.33;11.09;100919.97;4468074;32;33391;-83
2022/03/22 12:26:17;;;;;;;;;;;;;;;23.36;11.15;100917.25;4467736;32;34365;-82
2022/03/22 12:28:48;;;;;;;;;;;;;;;22.49;11.52;100920.72;4453842;32;34257;-82
2022/03/22 12:31:15;;;;;;;;;;;;;;;22.45;11.44;100914.59;4467805;32;33848;-82
2022/03/22 12:33:51;;;;;;;;;;;;;;;22.87;11.35;100909.81;4467730;32;33390;-82
2022/03/22 12:36:18;;;;;;;;;;;;;;;22.25;11.82;100898.03;4467480;32;34264;-82
2022/03/22 12:38:46;;;;;;;;;;;;;;;21.82;12.21;100901.81;4467945;32;34397;-83
2022/03/22 12:41:13;;;;;;;;;;;;;;;22.70;12.14;100902.06;4467843;32;33804;-82
2022/03/22 12:43:45;;;;;;;;;;;;;;;23.45;11.08;100889.78;4467684;32;34080;-82
2022/03/22 12:46:12;;;;;;;;;;;;;;;22.79;11.51;100890.50;4467701;32;34233;-82
2022/03/22 12:48:40;;;;;;;;;;;;;;;22.33;11.92;100886.50;4453587;32;35352;-82
2022/03/22 12:51:11;;;;;;;;;;;;;;;22.00;12.07;100889.34;4467621;32;34861;-82
2022/03/22 12:53:38;;;;;;;;;;;;;;;22.16;12.40;100880.50;4467549;32;32110;-82
2022/03/22 12:56:15;;;;;;;;;;;;;;;22.89;11.88;100871.00;4467435;32;34123;-83
2022/03/22 12:58:42;;;;;;;;;;;;;;;22.98;11.72;100876.22;4467851;32;35197;-82
2022/03/22 13:01:10;;;;;;;;;;;;;;;22.88;11.15;100871.91;4467350;32;35081;-82
2022/03/22 13:03:38;;;;;;;;;;;;;;;23.74;11.34;100860.31;4467926;32;33698;-83
2022/03/22 13:06:06;;;;;;;;;;;;;;;24.01;10.93;100857.25;4467892;32;34893;-82
2022/03/22 13:11:31;;;;;;;;;;;;;;;23.08;12.09;100842.62;4467646;32;34283;-82
2022/03/22 13:16:51;;;;;;;;;;;;;;;22.68;11.92;100843.00;4455395;32;33769;-82
2022/03/22 13:19:18;;;;;;;;;;;;;;;23.02;11.42;100834.75;4467385;32;35151;-82